GIA246 WIII-WAHS
Flight info
| Callsign | GIA246 |
|---|---|
| Flight time | N/A |
| Altitude | 25000 |
| Route | CA |
| Aircraft | B738/M-SDE2E3FGHIRWXY/LB1 |
Departure
| Time | 2026-04-27 12:26 |
|---|---|
| Airport | Soekarno-Hatta International Airport (WIII) |
Arrival
| Time | N/A |
|---|---|
| Airport | Jenderal Ahmad Yani Airport (WAHS) |
| Time | Latitude | Longitude | Altitude | Speed | Heading |
|---|---|---|---|---|---|
| 2026-04-27 11:56 | -6.11622 | 106.66821 | 37 ft | 0 kts | 134° |
| 2026-04-27 12:09 | -6.11605 | 106.66805 | 37 ft | 4 kts | 144° |
| 2026-04-27 12:09 | -6.11582 | 106.66792 | 34 ft | 4 kts | 159° |
| 2026-04-27 12:10 | -6.11556 | 106.66785 | 37 ft | 4 kts | 176° |
| 2026-04-27 12:10 | -6.11530 | 106.66787 | 36 ft | 4 kts | 201° |
| 2026-04-27 12:10 | -6.11510 | 106.66800 | 35 ft | 2 kts | 247° |
| 2026-04-27 12:10 | -6.11510 | 106.66801 | 35 ft | 1 kts | 248° |
| 2026-04-27 12:13 | -6.11514 | 106.66790 | 34 ft | 4 kts | 250° |
| 2026-04-27 12:13 | -6.11532 | 106.66744 | 36 ft | 10 kts | 249° |
| 2026-04-27 12:13 | -6.11566 | 106.66659 | 37 ft | 16 kts | 248° |
| 2026-04-27 12:13 | -6.11607 | 106.66555 | 37 ft | 17 kts | 249° |
| 2026-04-27 12:14 | -6.11646 | 106.66455 | 35 ft | 11 kts | 254° |
| 2026-04-27 12:14 | -6.11613 | 106.66401 | 37 ft | 9 kts | 334° |
| 2026-04-27 12:14 | -6.11555 | 106.66377 | 37 ft | 9 kts | 338° |
| 2026-04-27 12:14 | -6.11497 | 106.66354 | 36 ft | 9 kts | 338° |
| 2026-04-27 12:15 | -6.11442 | 106.66332 | 37 ft | 8 kts | 338° |
| 2026-04-27 12:15 | -6.11387 | 106.66310 | 37 ft | 8 kts | 338° |
| 2026-04-27 12:15 | -6.11352 | 106.66270 | 38 ft | 8 kts | 280° |
| 2026-04-27 12:15 | -6.11361 | 106.66215 | 38 ft | 8 kts | 244° |
| 2026-04-27 12:16 | -6.11386 | 106.66166 | 38 ft | 8 kts | 249° |
| 2026-04-27 12:16 | -6.11406 | 106.66114 | 38 ft | 8 kts | 248° |
| 2026-04-27 12:16 | -6.11430 | 106.66054 | 38 ft | 11 kts | 248° |
| 2026-04-27 12:16 | -6.11468 | 106.65959 | 37 ft | 18 kts | 248° |
| 2026-04-27 12:17 | -6.11523 | 106.65821 | 37 ft | 24 kts | 248° |
| 2026-04-27 12:17 | -6.11593 | 106.65645 | 37 ft | 30 kts | 248° |
| 2026-04-27 12:17 | -6.11649 | 106.65503 | 37 ft | 15 kts | 248° |
| 2026-04-27 12:17 | -6.11693 | 106.65396 | 38 ft | 18 kts | 249° |
| 2026-04-27 12:18 | -6.11741 | 106.65274 | 38 ft | 20 kts | 248° |
| 2026-04-27 12:18 | -6.11795 | 106.65138 | 38 ft | 22 kts | 248° |
| 2026-04-27 12:18 | -6.11854 | 106.64990 | 38 ft | 24 kts | 248° |
| 2026-04-27 12:18 | -6.11917 | 106.64832 | 38 ft | 25 kts | 248° |
| 2026-04-27 12:19 | -6.11980 | 106.64678 | 38 ft | 23 kts | 248° |
| 2026-04-27 12:19 | -6.12038 | 106.64530 | 37 ft | 22 kts | 248° |
| 2026-04-27 12:19 | -6.12095 | 106.64387 | 38 ft | 22 kts | 248° |
| 2026-04-27 12:19 | -6.12150 | 106.64248 | 38 ft | 21 kts | 248° |
| 2026-04-27 12:20 | -6.12203 | 106.64113 | 37 ft | 20 kts | 248° |
| 2026-04-27 12:20 | -6.12251 | 106.63996 | 37 ft | 10 kts | 249° |
| 2026-04-27 12:20 | -6.12254 | 106.63929 | 39 ft | 10 kts | 295° |
| 2026-04-27 12:20 | -6.12217 | 106.63896 | 40 ft | 0 kts | 339° |
| 2026-04-27 12:24 | -6.12206 | 106.63892 | 40 ft | 4 kts | 344° |
| 2026-04-27 12:24 | -6.12166 | 106.63895 | 39 ft | 8 kts | 20° |
| 2026-04-27 12:25 | -6.12098 | 106.63929 | 39 ft | 14 kts | 31° |
| 2026-04-27 12:25 | -6.12055 | 106.63999 | 37 ft | 14 kts | 68° |
| 2026-04-27 12:25 | -6.11971 | 106.64210 | 36 ft | 66 kts | 68° |
| 2026-04-27 12:25 | -6.11710 | 106.64864 | 42 ft | 133 kts | 68° |
| 2026-04-27 12:26 | -6.11320 | 106.65886 | 274 ft | 168 kts | 69° |
| 2026-04-27 12:26 | -6.10939 | 106.67011 | 960 ft | 175 kts | 71° |
| 2026-04-27 12:26 | -6.10576 | 106.68221 | 1653 ft | 185 kts | 74° |
| 2026-04-27 12:26 | -6.10237 | 106.69479 | 2460 ft | 186 kts | 76° |
| 2026-04-27 12:27 | -6.09923 | 106.70725 | 3355 ft | 182 kts | 78° |
| 2026-04-27 12:27 | -6.09615 | 106.72007 | 3937 ft | 199 kts | 78° |
| 2026-04-27 12:27 | -6.09267 | 106.73386 | 4586 ft | 203 kts | 77° |
| 2026-04-27 12:27 | -6.08911 | 106.74731 | 5466 ft | 197 kts | 78° |
| 2026-04-27 12:28 | -6.08741 | 106.76137 | 5911 ft | 213 kts | 91° |
| 2026-04-27 12:28 | -6.08776 | 106.77700 | 6155 ft | 232 kts | 92° |
| 2026-04-27 12:28 | -6.08810 | 106.79325 | 6808 ft | 231 kts | 92° |
| 2026-04-27 12:28 | -6.08842 | 106.80956 | 7342 ft | 243 kts | 92° |
| 2026-04-27 12:29 | -6.08887 | 106.82820 | 7024 ft | 293 kts | 92° |